EGPH - Edinburgh Airport
Distance from station: E 5mi, 14km
Updated: 12/14/2017 1:50am
Light rain, Partly cloudy
Light rain, Partly cloudy
 Wind from SW
Wind: SW 8 mph , 13 km/h
Temperature: 36°F , 2°C
Wind Chill: 30°F , -1°C
Dew Point: 34°F , 1°C
Humidity: 93%
Barometer: 28.91 inHg , 979 hPa
Summary: Light Rain
Clouds: Partly Cloudy
Visibility: 6 miles , 10 km
Cloud details: Partly Cloudy 1500 ft
Partly Cloudy 3500 ft
2017/12/14 09:50 EGPH 140950Z 23007KT 9999 7000W -RA SCT015 SCT035 02/01 Q0979